createdAt,value
2022-09-20T00:01:21.709Z,77.44
2022-09-20T00:08:00.857Z,77.82
2022-09-20T00:13:06.865Z,78.14
2022-09-20T00:18:15.239Z,78.44
2022-09-20T00:23:23.382Z,78.7
2022-09-20T00:28:30.912Z,78.94001
2022-09-20T00:33:39.466Z,79.2
2022-09-20T00:38:46.663Z,79.42
2022-09-20T00:43:54.550Z,79.62
2022-09-20T00:49:01.751Z,79.81
2022-09-20T00:54:10.575Z,79.95
2022-09-20T00:59:18.327Z,80.01
2022-09-20T01:04:25.801Z,80.06
2022-09-20T01:09:33.153Z,80.17
2022-09-20T01:14:40.930Z,80.26
2022-09-20T01:19:48.102Z,80.37001
2022-09-20T01:24:56.365Z,80.49
2022-09-20T01:30:03.149Z,80.54
2022-09-20T01:35:10.912Z,80.63
2022-09-20T01:40:18.272Z,80.79
2022-09-20T01:45:26.234Z,80.95
2022-09-20T01:50:34.084Z,80.96
2022-09-20T01:55:41.701Z,80.95
2022-09-20T02:00:49.931Z,80.93
2022-09-20T02:05:58.002Z,80.88
2022-09-20T02:11:05.706Z,80.84
2022-09-20T02:16:14.710Z,80.88
2022-09-20T02:21:22.144Z,80.94001
2022-09-20T02:26:30.458Z,81.03
2022-09-20T02:31:40.222Z,81.1
2022-09-20T02:36:48.654Z,81.19
2022-09-20T02:41:56.916Z,81.24
2022-09-20T02:47:03.950Z,81.3
2022-09-20T02:52:13.498Z,81.3
2022-09-20T02:57:20.828Z,81.39
2022-09-20T03:02:28.102Z,81.48001
2022-09-20T03:07:35.442Z,81.51
2022-09-20T03:12:44.152Z,81.48001
2022-09-20T03:17:53.017Z,81.45
2022-09-20T03:23:01.171Z,81.51999
2022-09-20T03:28:08.584Z,81.63
2022-09-20T03:33:16.487Z,81.68
2022-09-20T03:38:22.978Z,81.73
2022-09-20T03:43:30.831Z,81.94
2022-09-20T03:48:38.193Z,82.09
2022-09-20T03:53:45.859Z,82.29
2022-09-20T03:58:53.780Z,82.49
2022-09-20T04:04:01.657Z,82.66001
2022-09-20T04:09:08.939Z,82.78
2022-09-20T04:14:17.251Z,82.93
2022-09-20T04:19:24.476Z,83.01001
2022-09-20T04:24:31.850Z,83.02
2022-09-20T04:29:40.700Z,82.98
2022-09-20T04:34:49.746Z,83.02
2022-09-20T04:39:57.567Z,82.99
2022-09-20T04:45:06.275Z,83.01001
2022-09-20T04:50:14.868Z,82.98
2022-09-20T04:55:21.859Z,82.94001
2022-09-20T05:00:29.052Z,82.81
2022-09-20T05:05:36.260Z,82.69
2022-09-20T05:10:44.497Z,82.38
2022-09-20T05:15:52.500Z,82.02
2022-09-20T05:21:03.126Z,81.76001
2022-09-20T05:26:11.347Z,81.48001
2022-09-20T05:31:19.189Z,81.3
2022-09-20T05:36:27.175Z,81.09
2022-09-20T05:41:35.887Z,81.0
2022-09-20T05:46:44.355Z,80.92
2022-09-20T05:51:51.887Z,80.9
2022-09-20T05:57:00.992Z,80.85
2022-09-20T06:02:08.587Z,80.80001
2022-09-20T06:07:18.537Z,80.78
2022-09-20T06:12:31.673Z,80.78
2022-09-20T06:17:39.975Z,80.77
2022-09-20T06:22:47.303Z,80.72001
2022-09-20T06:27:55.346Z,80.73001
2022-09-20T06:33:03.233Z,80.64
2022-09-20T06:38:11.691Z,80.54
2022-09-20T06:43:19.844Z,80.36
2022-09-20T06:48:28.217Z,80.16001
2022-09-20T06:53:35.659Z,79.99
2022-09-20T06:58:44.051Z,79.78
2022-09-20T07:03:51.956Z,79.57
2022-09-20T07:08:58.827Z,79.02
2022-09-20T07:14:07.558Z,78.67
2022-09-20T07:19:14.839Z,78.28
2022-09-20T07:24:23.113Z,77.92
2022-09-20T07:29:30.556Z,77.5
2022-09-20T07:34:38.665Z,77.09
2022-09-20T07:39:46.684Z,76.71
2022-09-20T07:44:54.798Z,76.17
2022-09-20T07:50:02.002Z,75.23
2022-09-20T07:55:09.116Z,74.73001
2022-09-20T08:00:16.982Z,74.1
2022-09-20T08:05:26.178Z,72.99
2022-09-20T08:10:33.265Z,71.5
2022-09-20T08:15:41.641Z,69.09
2022-09-20T08:20:49.150Z,67.66
2022-09-20T08:25:56.109Z,66.98
2022-09-20T08:31:10.035Z,66.54
2022-09-20T08:36:16.904Z,66.30001
2022-09-20T08:41:25.246Z,66.28
2022-09-20T08:46:32.570Z,66.14
2022-09-20T08:51:40.908Z,66.08
2022-09-20T08:56:47.670Z,65.71
2022-09-20T09:01:56.816Z,64.98001
2022-09-20T09:07:04.595Z,63.65
2022-09-20T09:12:11.427Z,62.34
2022-09-20T09:17:18.597Z,60.88
2022-09-20T09:22:26.187Z,60.34
2022-09-20T09:32:44.552Z,59.53
2022-09-20T09:37:52.420Z,58.3
2022-09-20T09:43:03.103Z,56.83
2022-09-20T09:48:10.614Z,55.78
2022-09-20T09:53:18.777Z,54.82
2022-09-20T09:58:27.015Z,55.08
2022-09-20T10:08:42.376Z,54.93
2022-09-20T10:13:49.077Z,55.22
2022-09-20T10:18:56.248Z,55.28
2022-09-20T10:29:11.296Z,55.82
2022-09-20T10:34:19.141Z,56.28
2022-09-20T10:39:26.418Z,56.29
2022-09-20T10:44:34.290Z,57.25
2022-09-20T10:49:41.456Z,57.88
2022-09-20T10:54:49.923Z,57.98
2022-09-20T10:59:57.099Z,57.41
2022-09-20T11:05:04.183Z,56.39
2022-09-20T11:10:11.775Z,55.88
2022-09-20T11:15:21.085Z,54.71
2022-09-20T11:20:27.175Z,53.54
2022-09-20T11:25:36.141Z,52.84
2022-09-20T11:30:43.449Z,53.25
2022-09-20T11:40:58.330Z,53.4
2022-09-20T11:51:15.324Z,54.6
2022-09-20T11:56:21.878Z,55.38
2022-09-20T12:01:29.329Z,56.41
2022-09-20T12:06:36.412Z,57.23
2022-09-20T12:11:44.392Z,57.78
2022-09-20T12:16:50.815Z,58.31
2022-09-20T12:21:59.162Z,58.64
2022-09-20T12:27:06.000Z,59.32
2022-09-20T12:32:14.252Z,59.6
2022-09-20T12:37:21.536Z,59.57
2022-09-20T12:42:28.735Z,59.78
2022-09-20T12:57:52.012Z,58.65
2022-09-20T13:02:58.863Z,58.66
2022-09-20T13:08:05.384Z,58.75
2022-09-20T13:13:12.758Z,58.82
2022-09-20T13:18:20.464Z,58.94
2022-09-20T13:23:27.666Z,59.37
2022-09-20T13:28:36.486Z,59.39
2022-09-20T13:33:44.450Z,59.78
2022-09-20T13:38:51.780Z,60.19
2022-09-20T13:44:00.151Z,60.54
2022-09-20T13:49:07.455Z,61.05
2022-09-20T13:54:16.049Z,61.54
2022-09-20T13:59:23.185Z,62.02
2022-09-20T14:04:31.029Z,62.64
2022-09-20T14:09:38.233Z,62.7
2022-09-20T14:14:46.517Z,62.6
2022-09-20T14:19:53.214Z,62.08
2022-09-20T14:25:00.417Z,61.76
2022-09-20T14:30:07.615Z,61.34
2022-09-20T14:35:56.447Z,60.73
2022-09-20T14:41:04.903Z,60.67
2022-09-20T14:46:11.458Z,60.46
2022-09-20T14:51:19.944Z,60.51
2022-09-20T14:56:41.852Z,60.66
2022-09-20T15:01:49.918Z,60.56
2022-09-20T15:06:57.547Z,60.81
2022-09-20T15:12:04.883Z,60.76
2022-09-20T15:17:13.054Z,61.12
2022-09-20T15:22:19.822Z,61.15
2022-09-20T15:27:28.826Z,61.37
2022-09-20T15:32:36.352Z,61.5
2022-09-20T15:37:44.239Z,61.9
2022-09-20T15:42:51.373Z,62.2
2022-09-20T15:47:58.331Z,62.64
2022-09-20T15:53:05.464Z,63.04
2022-09-20T15:58:12.677Z,63.31
2022-09-20T16:03:20.654Z,63.32
2022-09-20T16:08:27.781Z,63.57
2022-09-20T16:13:34.973Z,63.98
2022-09-20T16:18:42.551Z,64.39
2022-09-20T16:23:50.603Z,64.91001
2022-09-20T16:28:58.933Z,65.41
2022-09-20T16:34:06.853Z,65.91001
2022-09-20T16:39:15.284Z,66.36
2022-09-20T16:45:01.764Z,66.89
2022-09-20T16:50:08.950Z,67.46
2022-09-20T16:55:16.151Z,68.02
2022-09-20T17:00:24.912Z,68.5
2022-09-20T17:05:31.837Z,68.9
2022-09-20T17:30:32.819Z,70.81
2022-09-20T17:35:37.918Z,71.18
2022-09-20T17:40:46.346Z,71.64
2022-09-20T17:45:53.545Z,72.22
2022-09-20T17:51:00.832Z,72.72
2022-09-20T17:56:09.150Z,73.17
2022-09-20T18:01:17.064Z,73.77
2022-09-20T18:06:25.591Z,74.19
2022-09-20T18:11:32.798Z,74.62
2022-09-20T18:16:40.575Z,75.0
2022-09-20T18:21:52.208Z,75.39
2022-09-20T18:27:00.885Z,75.71
2022-09-20T18:32:08.521Z,76.01
2022-09-20T18:37:16.660Z,76.31
2022-09-20T18:42:23.616Z,76.58
2022-09-20T18:47:32.630Z,76.8
2022-09-20T18:52:40.224Z,77.03
2022-09-20T18:57:47.140Z,77.3
2022-09-20T19:02:54.825Z,77.62001
2022-09-20T19:08:02.127Z,77.89
2022-09-20T19:13:10.654Z,78.05
2022-09-20T19:18:18.435Z,78.21
2022-09-20T19:23:25.693Z,78.48001
2022-09-20T19:28:32.893Z,78.72
2022-09-20T19:33:40.248Z,78.98
2022-09-20T19:38:48.156Z,79.33
2022-09-20T19:43:56.264Z,79.52
2022-09-20T19:49:03.619Z,79.72
2022-09-20T19:54:11.643Z,79.88
2022-09-20T19:59:18.026Z,80.14
2022-09-20T20:04:26.932Z,80.32001
2022-09-20T20:09:35.366Z,80.47
2022-09-20T20:14:43.214Z,80.57
2022-09-20T20:19:51.313Z,80.62
2022-09-20T20:24:59.104Z,80.7
2022-09-20T20:30:05.704Z,80.79
2022-09-20T20:35:13.670Z,80.9
2022-09-20T20:40:21.381Z,80.96
2022-09-20T20:45:29.620Z,81.08001
2022-09-20T20:50:36.466Z,81.17
2022-09-20T20:55:44.306Z,81.21
2022-09-20T21:00:52.052Z,81.26
2022-09-20T21:06:00.192Z,81.25
2022-09-20T21:11:08.289Z,81.23
2022-09-20T21:16:15.601Z,81.21
2022-09-20T21:21:24.633Z,81.25
2022-09-20T21:26:32.997Z,81.26
2022-09-20T21:31:41.264Z,81.32
2022-09-20T21:36:49.340Z,81.35
2022-09-20T21:41:57.486Z,81.39
2022-09-20T21:47:05.733Z,81.44
2022-09-20T21:52:13.907Z,81.46
2022-09-20T21:57:21.745Z,81.42
2022-09-20T22:02:33.267Z,81.37
2022-09-20T22:07:40.469Z,81.3
2022-09-20T22:12:48.098Z,81.22001
2022-09-20T22:17:56.026Z,81.16
2022-09-20T22:23:04.128Z,81.08001
2022-09-20T22:28:10.493Z,81.13
2022-09-20T22:33:20.022Z,81.16
2022-09-20T22:38:27.453Z,81.31
2022-09-20T22:43:35.285Z,81.48001
2022-09-20T22:48:43.184Z,81.48001
2022-09-20T22:53:50.414Z,81.48001
2022-09-20T22:58:58.426Z,81.51999
2022-09-20T23:04:06.132Z,81.57001
2022-09-20T23:09:14.681Z,81.72
2022-09-20T23:14:22.886Z,81.81
2022-09-20T23:19:29.549Z,81.88
2022-09-20T23:24:37.420Z,81.8
2022-09-20T23:29:43.942Z,81.64001
2022-09-20T23:34:51.737Z,81.51999
2022-09-20T23:39:59.662Z,81.51
2022-09-20T23:45:07.657Z,81.48001
2022-09-20T23:50:16.444Z,81.43001
2022-09-20T23:55:24.926Z,81.34
